Time;durP1;ratioP1;P1;durP2;ratioP2;P2;SDS_P1;SDS_P2;PMS_P1;PMS_P2;Temp;Humidity;BMP_temperature;BMP_pressure;BME280_temperature;BME280_humidity;BME280_pressure;Samples;Min_cycle;Max_cycle;Signal;HPM_P1;HPM_P2
2022/04/15 00:00:46;;;;;;;18.45;11.65;;;;;;;;;;4989978;28;20132;-70
2022/04/15 00:03:12;;;;;;;18.67;10.02;;;;;;;;;;4994261;28;20057;-70
2022/04/15 00:05:40;;;;;;;15.48;8.55;;;;;;;;;;4986645;28;20775;-71
2022/04/15 00:08:12;;;;;;;15.80;8.15;;;;;;;;;;4992152;28;20022;-71
2022/04/15 00:10:45;;;;;;;14.52;9.00;;;;;;;;;;4993354;28;20052;-71
2022/04/15 00:13:12;;;;;;;13.85;8.07;;;;;;;;;;4994489;28;20504;-71
2022/04/15 00:15:40;;;;;;;15.32;8.57;;;;;;;;;;4996687;28;20478;-71
2022/04/15 00:18:06;;;;;;;17.98;8.95;;;;;;;;;;5003100;28;20069;-70
2022/04/15 00:20:32;;;;;;;15.80;8.75;;;;;;;;;;4995649;28;20034;-71
2022/04/15 00:22:59;;;;;;;19.30;9.90;;;;;;;;;;4992178;28;20045;-70
2022/04/15 00:25:25;;;;;;;16.88;8.80;;;;;;;;;;5001336;28;20342;-71
2022/04/15 00:27:51;;;;;;;15.75;8.80;;;;;;;;;;4997984;28;20591;-70
2022/04/15 00:30:17;;;;;;;20.27;9.60;;;;;;;;;;4994255;28;20042;-71
2022/04/15 00:32:42;;;;;;;15.95;9.07;;;;;;;;;;4998968;28;20411;-71
2022/04/15 00:35:08;;;;;;;17.38;9.27;;;;;;;;;;4999479;28;20019;-71
2022/04/15 00:37:34;;;;;;;19.67;9.57;;;;;;;;;;5005015;28;20040;-70
2022/04/15 00:40:02;;;;;;;18.65;9.00;;;;;;;;;;4997921;28;20122;-70
2022/04/15 00:42:28;;;;;;;19.92;10.70;;;;;;;;;;5010726;28;20038;-71
2022/04/15 00:44:55;;;;;;;13.15;7.85;;;;;;;;;;5010530;28;20045;-70
2022/04/15 00:47:30;;;;;;;18.08;9.27;;;;;;;;;;5010795;28;20030;-71
2022/04/15 00:49:56;;;;;;;17.15;8.98;;;;;;;;;;4995939;28;20057;-70
2022/04/15 00:52:25;;;;;;;15.35;8.07;;;;;;;;;;4995863;28;20041;-71
2022/04/15 00:54:54;;;;;;;15.07;9.05;;;;;;;;;;4999257;28;20073;-71
2022/04/15 00:57:23;;;;;;;17.92;9.88;;;;;;;;;;4999133;28;20042;-70
2022/04/15 00:59:51;;;;;;;18.08;9.95;;;;;;;;;;4992704;28;20096;-71
2022/04/15 01:02:17;;;;;;;13.85;9.20;;;;;;;;;;5000801;28;20026;-70
2022/04/15 01:04:44;;;;;;;18.63;10.20;;;;;;;;;;4997051;28;20068;-71
2022/04/15 01:07:14;;;;;;;16.73;9.07;;;;;;;;;;5007698;28;20081;-70
2022/04/15 01:09:43;;;;;;;16.70;9.23;;;;;;;;;;5000002;28;20103;-70
2022/04/15 01:12:12;;;;;;;18.02;10.05;;;;;;;;;;4997374;28;20138;-70
2022/04/15 01:14:38;;;;;;;15.10;9.20;;;;;;;;;;5003811;28;20026;-70
2022/04/15 01:17:04;;;;;;;19.83;9.90;;;;;;;;;;5000999;28;20026;-70
2022/04/15 01:19:29;;;;;;;19.60;10.30;;;;;;;;;;5001588;28;20088;-70
2022/04/15 01:21:56;;;;;;;17.98;10.07;;;;;;;;;;5007804;28;20104;-70
2022/04/15 01:24:23;;;;;;;17.08;9.27;;;;;;;;;;4990803;28;20038;-70
2022/04/15 01:26:48;;;;;;;16.67;9.30;;;;;;;;;;4991282;28;20072;-70
2022/04/15 01:29:15;;;;;;;17.20;8.82;;;;;;;;;;5002169;28;20057;-70
2022/04/15 01:31:40;;;;;;;19.65;9.68;;;;;;;;;;4996176;28;20116;-71
2022/04/15 01:34:06;;;;;;;20.13;10.98;;;;;;;;;;5009194;28;20033;-70
2022/04/15 01:36:31;;;;;;;21.25;10.73;;;;;;;;;;4994299;28;20494;-70
2022/04/15 01:38:58;;;;;;;20.05;10.63;;;;;;;;;;4991483;28;20042;-70
2022/04/15 01:41:23;;;;;;;19.55;10.75;;;;;;;;;;5005058;28;20037;-70
2022/04/15 01:43:49;;;;;;;21.42;11.48;;;;;;;;;;5000446;28;20041;-70
2022/04/15 01:46:15;;;;;;;22.50;12.20;;;;;;;;;;4989965;28;20047;-70
2022/04/15 01:48:40;;;;;;;26.30;13.50;;;;;;;;;;4997501;28;20043;-71
2022/04/15 01:51:06;;;;;;;26.02;12.65;;;;;;;;;;5001754;28;20396;-71
2022/04/15 01:53:31;;;;;;;19.35;11.10;;;;;;;;;;5000065;28;20400;-70
2022/04/15 01:55:56;;;;;;;17.13;10.23;;;;;;;;;;4991886;28;20061;-70
2022/04/15 01:58:22;;;;;;;18.92;10.55;;;;;;;;;;4996736;28;20030;-71
2022/04/15 02:00:47;;;;;;;27.10;12.45;;;;;;;;;;4999484;28;20039;-71
2022/04/15 02:03:12;;;;;;;21.63;11.73;;;;;;;;;;4997738;28;20045;-71
2022/04/15 02:05:38;;;;;;;24.92;12.60;;;;;;;;;;4989758;28;20510;-70
2022/04/15 02:08:03;;;;;;;23.42;11.82;;;;;;;;;;5000165;28;20502;-70
2022/04/15 02:10:29;;;;;;;22.65;12.20;;;;;;;;;;4997209;28;20504;-71
2022/04/15 02:12:54;;;;;;;20.83;10.90;;;;;;;;;;4994474;28;20041;-70
2022/04/15 02:15:19;;;;;;;18.02;9.85;;;;;;;;;;4994616;28;20044;-70
2022/04/15 02:17:45;;;;;;;21.10;10.98;;;;;;;;;;4990995;28;20037;-71
2022/04/15 02:20:11;;;;;;;19.63;11.10;;;;;;;;;;4993919;28;20045;-71
2022/04/15 02:22:37;;;;;;;21.15;11.30;;;;;;;;;;4994979;28;20042;-71
2022/04/15 02:25:03;;;;;;;20.23;10.48;;;;;;;;;;4993702;28;20048;-70
2022/04/15 02:27:28;;;;;;;29.83;13.05;;;;;;;;;;4999588;28;20593;-70
2022/04/15 02:29:53;;;;;;;25.70;12.50;;;;;;;;;;5002472;28;20030;-70
2022/04/15 02:32:19;;;;;;;22.77;12.80;;;;;;;;;;4997107;28;20034;-70
2022/04/15 02:34:44;;;;;;;19.30;11.50;;;;;;;;;;4994829;28;20117;-70
2022/04/15 02:37:09;;;;;;;26.35;11.95;;;;;;;;;;4997172;28;20516;-70
2022/04/15 02:39:35;;;;;;;21.35;11.23;;;;;;;;;;4996512;28;20531;-71
2022/04/15 02:42:00;;;;;;;19.58;11.05;;;;;;;;;;5001570;28;20034;-70
2022/04/15 02:44:27;;;;;;;22.75;12.18;;;;;;;;;;5005584;28;20034;-70
2022/04/15 02:46:54;;;;;;;28.42;14.85;;;;;;;;;;4997799;28;20049;-70
2022/04/15 02:49:19;;;;;;;32.53;15.10;;;;;;;;;;4989041;28;20044;-70
2022/04/15 02:51:45;;;;;;;31.85;15.68;;;;;;;;;;5005612;28;20034;-71
2022/04/15 02:54:10;;;;;;;29.83;15.20;;;;;;;;;;4992721;28;20052;-70
2022/04/15 02:56:35;;;;;;;36.50;16.42;;;;;;;;;;4999638;28;20026;-70
2022/04/15 02:59:01;;;;;;;32.45;17.30;;;;;;;;;;4995064;28;20057;-70
2022/04/15 03:01:26;;;;;;;30.90;14.68;;;;;;;;;;4988676;28;20074;-70
2022/04/15 03:03:51;;;;;;;27.60;13.90;;;;;;;;;;4992281;28;20053;-70
2022/04/15 03:06:17;;;;;;;25.83;14.63;;;;;;;;;;4991484;28;20070;-70
2022/04/15 03:08:43;;;;;;;27.13;14.10;;;;;;;;;;4998479;28;20369;-70
2022/04/15 03:11:08;;;;;;;34.88;17.20;;;;;;;;;;4989212;28;20045;-71
2022/04/15 03:13:34;;;;;;;29.02;16.10;;;;;;;;;;4999545;28;20048;-70
2022/04/15 03:16:00;;;;;;;35.78;16.55;;;;;;;;;;5000221;28;20066;-70
2022/04/15 03:18:25;;;;;;;32.50;15.90;;;;;;;;;;4988734;28;20069;-70
2022/04/15 03:20:51;;;;;;;33.72;16.15;;;;;;;;;;4997394;28;20053;-70
2022/04/15 03:23:19;;;;;;;29.77;16.15;;;;;;;;;;4999696;28;20018;-70
2022/04/15 03:25:46;;;;;;;31.52;15.82;;;;;;;;;;4994504;28;20087;-70
2022/04/15 03:28:12;;;;;;;33.38;15.35;;;;;;;;;;4994115;28;20081;-70
2022/04/15 03:30:37;;;;;;;31.55;16.30;;;;;;;;;;5006125;28;20096;-70
2022/04/15 03:33:03;;;;;;;31.95;15.85;;;;;;;;;;4990713;28;20031;-70
2022/04/15 03:35:28;;;;;;;32.70;15.75;;;;;;;;;;4996428;28;20032;-70
2022/04/15 03:37:54;;;;;;;34.38;17.30;;;;;;;;;;5001239;28;20071;-71
2022/04/15 03:40:20;;;;;;;43.55;20.40;;;;;;;;;;5001480;28;20133;-71
2022/04/15 03:42:49;;;;;;;48.38;22.08;;;;;;;;;;5005229;28;20059;-71
2022/04/15 03:45:18;;;;;;;57.75;25.48;;;;;;;;;;4995624;28;20030;-70
2022/04/15 03:47:47;;;;;;;57.30;25.70;;;;;;;;;;4993005;28;20030;-70
2022/04/15 03:50:13;;;;;;;55.67;26.60;;;;;;;;;;4994834;28;20014;-71
2022/04/15 03:52:42;;;;;;;55.90;26.88;;;;;;;;;;4997666;28;20116;-70
2022/04/15 03:55:10;;;;;;;55.75;25.92;;;;;;;;;;5002977;28;20122;-71
2022/04/15 03:57:35;;;;;;;49.83;26.35;;;;;;;;;;4992792;28;20038;-70
2022/04/15 04:00:00;;;;;;;57.00;25.65;;;;;;;;;;4988340;28;20045;-70
2022/04/15 04:02:26;;;;;;;55.28;24.67;;;;;;;;;;4993734;28;20046;-70
2022/04/15 04:04:51;;;;;;;53.75;25.48;;;;;;;;;;4988580;28;20038;-70
2022/04/15 04:07:16;;;;;;;57.72;26.95;;;;;;;;;;4998092;28;20030;-70
2022/04/15 04:09:42;;;;;;;56.75;29.00;;;;;;;;;;4998511;28;20034;-70
2022/04/15 04:12:08;;;;;;;54.92;26.55;;;;;;;;;;4995548;28;20109;-70
2022/04/15 04:14:33;;;;;;;46.63;23.45;;;;;;;;;;4995504;28;20060;-70
2022/04/15 04:16:59;;;;;;;46.80;22.30;;;;;;;;;;4996179;28;20041;-71
2022/04/15 04:19:24;;;;;;;45.42;21.85;;;;;;;;;;4997466;28;20037;-70
2022/04/15 04:21:49;;;;;;;45.80;22.05;;;;;;;;;;5005757;28;20052;-70
2022/04/15 04:24:15;;;;;;;47.00;22.35;;;;;;;;;;5010902;28;20038;-70
2022/04/15 04:26:40;;;;;;;49.83;23.95;;;;;;;;;;4999625;28;20030;-71
2022/04/15 04:29:05;;;;;;;47.92;23.20;;;;;;;;;;4997615;28;20026;-70
2022/04/15 04:31:30;;;;;;;47.75;23.25;;;;;;;;;;4997925;28;20623;-71
2022/04/15 04:33:56;;;;;;;45.08;22.02;;;;;;;;;;4997064;28;20409;-70
2022/04/15 04:36:21;;;;;;;47.42;23.88;;;;;;;;;;5007789;28;20100;-70
2022/04/15 04:38:46;;;;;;;45.13;22.05;;;;;;;;;;5010706;28;20116;-70
2022/04/15 04:41:12;;;;;;;53.83;25.77;;;;;;;;;;5009629;28;20026;-70
2022/04/15 04:43:37;;;;;;;42.60;21.30;;;;;;;;;;5004117;28;20038;-70
2022/04/15 04:46:03;;;;;;;41.45;20.30;;;;;;;;;;5003370;28;20042;-70
2022/04/15 04:48:28;;;;;;;43.75;22.00;;;;;;;;;;4998207;28;20089;-71
2022/04/15 04:50:54;;;;;;;43.85;21.27;;;;;;;;;;5004109;28;20026;-70
2022/04/15 04:53:19;;;;;;;47.30;22.98;;;;;;;;;;4999870;28;20396;-70
2022/04/15 04:55:44;;;;;;;52.80;25.98;;;;;;;;;;4994764;28;20103;-70
2022/04/15 04:58:10;;;;;;;49.35;24.35;;;;;;;;;;4994681;28;20105;-70
2022/04/15 05:00:35;;;;;;;48.53;24.27;;;;;;;;;;4993977;28;20038;-70
2022/04/15 05:03:01;;;;;;;52.90;24.70;;;;;;;;;;4996562;28;20050;-70
2022/04/15 05:05:26;;;;;;;49.95;23.45;;;;;;;;;;5004694;28;20025;-70
2022/04/15 05:07:51;;;;;;;52.65;25.40;;;;;;;;;;4996949;28;20066;-70
2022/04/15 05:10:17;;;;;;;54.72;26.33;;;;;;;;;;5000749;28;20140;-70
2022/04/15 05:12:42;;;;;;;48.17;24.77;;;;;;;;;;4996621;28;20116;-70
2022/04/15 05:15:08;;;;;;;55.53;27.40;;;;;;;;;;4994053;28;20133;-70
2022/04/15 05:17:33;;;;;;;52.42;26.00;;;;;;;;;;5008913;28;20029;-70
2022/04/15 05:19:59;;;;;;;52.97;25.75;;;;;;;;;;5002270;28;20038;-70
2022/04/15 05:22:24;;;;;;;54.55;25.67;;;;;;;;;;5002083;28;20046;-71
2022/04/15 05:24:51;;;;;;;50.65;25.98;;;;;;;;;;4999465;28;20619;-70
2022/04/15 05:27:16;;;;;;;54.03;25.50;;;;;;;;;;4997102;28;20467;-70
2022/04/15 05:29:42;;;;;;;53.28;26.45;;;;;;;;;;4993506;28;20085;-70
2022/04/15 05:32:07;;;;;;;51.22;25.83;;;;;;;;;;4999640;28;20032;-70
2022/04/15 05:34:32;;;;;;;53.92;26.92;;;;;;;;;;5001435;28;20112;-70
2022/04/15 05:36:58;;;;;;;51.25;26.00;;;;;;;;;;4996760;28;20427;-70
2022/04/15 05:39:23;;;;;;;47.28;25.38;;;;;;;;;;4998283;28;20035;-70
2022/04/15 05:41:48;;;;;;;55.60;28.02;;;;;;;;;;4995422;28;20118;-70
2022/04/15 05:44:14;;;;;;;55.25;28.08;;;;;;;;;;5000957;28;20026;-70
2022/04/15 05:46:42;;;;;;;70.00;31.90;;;;;;;;;;5006721;28;20042;-70
2022/04/15 05:49:13;;;;;;;63.55;30.45;;;;;;;;;;4999510;28;20101;-70
2022/04/15 05:51:39;;;;;;;63.22;30.95;;;;;;;;;;5000862;28;20040;-70
2022/04/15 05:54:04;;;;;;;64.35;30.73;;;;;;;;;;4997730;28;21294;-70
2022/04/15 05:56:29;;;;;;;67.32;32.10;;;;;;;;;;4998652;28;20157;-70
2022/04/15 05:58:55;;;;;;;63.58;32.20;;;;;;;;;;4999235;28;20076;-70
2022/04/15 06:01:21;;;;;;;66.80;31.00;;;;;;;;;;4998070;28;20046;-71
2022/04/15 06:03:46;;;;;;;71.57;33.83;;;;;;;;;;4995904;28;20227;-70
2022/04/15 06:06:11;;;;;;;71.55;33.30;;;;;;;;;;4996907;28;20042;-70
2022/04/15 06:08:37;;;;;;;67.78;33.95;;;;;;;;;;4996092;28;20049;-70
2022/04/15 06:11:02;;;;;;;73.38;33.83;;;;;;;;;;4998570;28;20014;-71
2022/04/15 06:13:27;;;;;;;70.28;33.38;;;;;;;;;;5003814;28;20120;-73
2022/04/15 06:15:53;;;;;;;78.07;33.83;;;;;;;;;;4996443;28;20554;-75
2022/04/15 06:18:20;;;;;;;73.72;33.15;;;;;;;;;;4997325;28;20563;-77
2022/04/15 06:20:47;;;;;;;73.78;33.65;;;;;;;;;;4989459;28;20041;-72
2022/04/15 06:23:13;;;;;;;69.63;33.08;;;;;;;;;;5006911;28;20029;-73
2022/04/15 06:25:38;;;;;;;69.82;33.55;;;;;;;;;;4988705;28;20484;-73
2022/04/15 06:28:04;;;;;;;72.63;35.58;;;;;;;;;;4994618;28;20042;-72
2022/04/15 06:30:29;;;;;;;72.90;34.20;;;;;;;;;;5001910;28;20042;-72
2022/04/15 06:32:55;;;;;;;73.88;33.22;;;;;;;;;;5002075;28;20037;-70
2022/04/15 06:35:20;;;;;;;70.40;34.63;;;;;;;;;;5008961;28;20029;-70
2022/04/15 06:37:46;;;;;;;72.28;32.80;;;;;;;;;;5006444;28;20041;-70
2022/04/15 06:40:11;;;;;;;74.57;35.50;;;;;;;;;;5004143;28;20463;-70
2022/04/15 06:42:37;;;;;;;67.90;34.40;;;;;;;;;;5004374;28;20091;-70
2022/04/15 06:45:04;;;;;;;77.53;34.50;;;;;;;;;;5003078;28;20534;-70
2022/04/15 06:47:29;;;;;;;74.60;34.67;;;;;;;;;;5007207;28;20029;-70
2022/04/15 06:49:55;;;;;;;73.28;35.03;;;;;;;;;;5027068;28;20033;-70
2022/04/15 06:52:20;;;;;;;74.10;34.13;;;;;;;;;;5015011;28;20805;-71
2022/04/15 06:54:46;;;;;;;72.22;33.60;;;;;;;;;;5005378;28;20098;-70
2022/04/15 06:57:12;;;;;;;68.20;32.58;;;;;;;;;;5004886;28;20121;-73
2022/04/15 06:59:37;;;;;;;71.63;33.42;;;;;;;;;;4993297;28;20159;-74
2022/04/15 07:02:03;;;;;;;65.18;32.22;;;;;;;;;;4997988;28;20030;-73
2022/04/15 07:04:29;;;;;;;69.97;34.15;;;;;;;;;;4994539;28;20030;-72
2022/04/15 07:06:58;;;;;;;70.28;33.10;;;;;;;;;;4996431;28;20437;-72
2022/04/15 07:09:23;;;;;;;68.95;33.13;;;;;;;;;;5001535;28;20482;-73
2022/04/15 07:11:48;;;;;;;69.97;31.58;;;;;;;;;;5002738;28;20272;-72
2022/04/15 07:14:14;;;;;;;65.60;32.25;;;;;;;;;;5001982;28;20029;-73
2022/04/15 07:16:39;;;;;;;65.50;31.75;;;;;;;;;;4995769;28;20045;-72
2022/04/15 07:19:07;;;;;;;64.75;30.85;;;;;;;;;;4995575;28;20024;-73
2022/04/15 07:21:32;;;;;;;61.42;29.42;;;;;;;;;;4994222;28;20069;-71
2022/04/15 07:23:58;;;;;;;51.95;27.17;;;;;;;;;;4997950;28;20092;-71
2022/04/15 07:26:23;;;;;;;53.28;27.35;;;;;;;;;;5001441;28;20057;-72
2022/04/15 07:28:49;;;;;;;55.83;25.17;;;;;;;;;;5000093;28;20069;-72
2022/04/15 07:31:15;;;;;;;46.38;23.00;;;;;;;;;;4995870;28;20072;-71
2022/04/15 07:33:40;;;;;;;47.53;23.80;;;;;;;;;;4997624;28;20164;-71
2022/04/15 07:36:31;;;;;;;51.38;24.95;;;;;;;;;;4987913;28;20611;-69
2022/04/15 07:38:51;;;;;;;47.25;22.63;;;;;;;;;;4995623;28;20488;-72
2022/04/15 07:41:17;;;;;;;39.92;21.25;;;;;;;;;;5005902;28;20507;-73
2022/04/15 07:43:42;;;;;;;40.90;19.10;;;;;;;;;;4999443;28;20045;-71
2022/04/15 07:46:08;;;;;;;43.88;20.95;;;;;;;;;;4998180;28;20041;-74
2022/04/15 07:48:33;;;;;;;40.05;19.25;;;;;;;;;;4998883;28;20057;-74
2022/04/15 07:50:59;;;;;;;35.80;18.95;;;;;;;;;;4999925;28;20042;-71
2022/04/15 07:53:24;;;;;;;40.45;19.65;;;;;;;;;;4992486;28;20034;-73
2022/04/15 07:55:50;;;;;;;42.13;19.83;;;;;;;;;;5002114;28;20408;-73
2022/04/15 07:58:15;;;;;;;32.42;18.15;;;;;;;;;;4997106;28;20026;-74
2022/04/15 08:00:42;;;;;;;38.45;18.92;;;;;;;;;;4995272;28;20030;-73
2022/04/15 08:03:08;;;;;;;34.58;18.38;;;;;;;;;;4995519;28;20449;-73
2022/04/15 08:05:33;;;;;;;38.15;18.30;;;;;;;;;;4995682;28;20092;-71
2022/04/15 08:07:58;;;;;;;33.17;16.35;;;;;;;;;;4999575;28;20061;-72
2022/04/15 08:10:24;;;;;;;33.50;16.00;;;;;;;;;;4997993;28;20035;-72
2022/04/15 08:12:49;;;;;;;28.55;15.82;;;;;;;;;;5001385;28;20072;-72
2022/04/15 08:15:14;;;;;;;29.95;15.27;;;;;;;;;;4991961;28;20039;-72
2022/04/15 08:17:40;;;;;;;26.95;14.15;;;;;;;;;;5001042;28;20116;-72
2022/04/15 08:20:06;;;;;;;33.97;16.55;;;;;;;;;;4991826;28;20607;-72
2022/04/15 08:22:35;;;;;;;31.48;16.33;;;;;;;;;;5002490;28;20041;-72
2022/04/15 08:25:01;;;;;;;34.25;16.38;;;;;;;;;;4996700;28;20022;-72
2022/04/15 08:27:27;;;;;;;30.38;15.27;;;;;;;;;;5002150;28;20065;-77
2022/04/15 08:29:53;;;;;;;33.72;16.20;;;;;;;;;;5003518;28;20435;-75
2022/04/15 08:32:19;;;;;;;35.42;16.98;;;;;;;;;;5002255;28;20503;-71
2022/04/15 08:34:45;;;;;;;33.80;15.85;;;;;;;;;;5000728;28;20040;-70
2022/04/15 08:37:12;;;;;;;27.52;15.75;;;;;;;;;;4995139;28;20089;-72
2022/04/15 08:39:37;;;;;;;29.55;15.68;;;;;;;;;;4997255;28;20045;-72
2022/04/15 08:42:07;;;;;;;33.72;16.17;;;;;;;;;;5000288;28;20508;-72
2022/04/15 08:44:32;;;;;;;30.35;14.88;;;;;;;;;;5001957;28;20033;-72
2022/04/15 08:47:00;;;;;;;25.70;12.88;;;;;;;;;;5002211;28;20030;-71
2022/04/15 08:49:26;;;;;;;26.20;13.05;;;;;;;;;;5002890;28;20050;-71
2022/04/15 08:51:52;;;;;;;24.23;12.55;;;;;;;;;;4999914;28;20521;-71
2022/04/15 08:54:18;;;;;;;24.63;11.90;;;;;;;;;;5002164;28;20085;-72
2022/04/15 08:56:44;;;;;;;27.63;13.73;;;;;;;;;;5001413;28;20038;-71
2022/04/15 08:59:09;;;;;;;28.90;13.98;;;;;;;;;;4998548;28;20059;-71
2022/04/15 09:01:35;;;;;;;26.85;14.18;;;;;;;;;;4995915;28;20089;-72
2022/04/15 09:04:00;;;;;;;26.48;12.55;;;;;;;;;;4998994;28;20045;-72
2022/04/15 09:06:31;;;;;;;22.45;10.55;;;;;;;;;;5003357;28;20049;-72
2022/04/15 09:09:12;;;;;;;33.40;11.90;;;;;;;;;;5001871;28;20035;-69
2022/04/15 09:11:40;;;;;;;20.80;11.15;;;;;;;;;;4998539;28;20049;-73
2022/04/15 09:14:14;;;;;;;21.48;9.57;;;;;;;;;;5006511;28;20117;-70
2022/04/15 09:16:45;;;;;;;26.60;11.50;;;;;;;;;;4996180;28;20314;-69
2022/04/15 09:19:12;;;;;;;17.50;10.63;;;;;;;;;;4999516;28;20022;-70
2022/04/15 09:21:39;;;;;;;19.75;9.27;;;;;;;;;;5008450;28;20021;-70
2022/04/15 09:24:04;;;;;;;13.60;7.75;;;;;;;;;;5007276;28;20574;-69
2022/04/15 09:26:30;;;;;;;19.70;8.60;;;;;;;;;;4999278;28;20057;-69
2022/04/15 09:28:56;;;;;;;14.35;7.28;;;;;;;;;;5004012;28;20146;-69
2022/04/15 09:31:23;;;;;;;13.57;6.55;;;;;;;;;;5006423;28;20057;-69
2022/04/15 09:33:56;;;;;;;16.08;9.20;;;;;;;;;;5003939;28;20040;-69
2022/04/15 09:36:27;;;;;;;15.30;8.77;;;;;;;;;;4987176;28;20042;-70
2022/04/15 09:39:02;;;;;;;16.02;8.35;;;;;;;;;;4984862;28;20803;-70
2022/04/15 09:41:29;;;;;;;16.88;7.75;;;;;;;;;;4979124;28;20109;-70
2022/04/15 09:43:57;;;;;;;32.13;13.35;;;;;;;;;;4982656;28;20050;-68
2022/04/15 09:46:22;;;;;;;25.27;12.73;;;;;;;;;;4980044;28;20038;-71
2022/04/15 09:49:08;;;;;;;22.13;11.60;;;;;;;;;;4979814;28;20072;-71
2022/04/15 09:51:38;;;;;;;14.30;7.88;;;;;;;;;;5007945;28;20085;-72
2022/04/15 09:54:05;;;;;;;15.27;8.07;;;;;;;;;;5005028;28;20585;-70
2022/04/15 09:56:33;;;;;;;20.83;9.45;;;;;;;;;;4983473;28;20038;-73
2022/04/15 09:59:04;;;;;;;28.63;10.90;;;;;;;;;;4978890;28;20093;-72
2022/04/15 10:01:32;;;;;;;20.05;10.82;;;;;;;;;;4983825;28;20445;-73
2022/04/15 10:03:58;;;;;;;20.38;8.60;;;;;;;;;;4983741;28;20054;-73
2022/04/15 10:06:25;;;;;;;11.13;5.57;;;;;;;;;;4973013;28;20040;-73
2022/04/15 10:08:52;;;;;;;16.77;8.00;;;;;;;;;;4979943;28;20548;-73
2022/04/15 10:11:18;;;;;;;11.90;5.38;;;;;;;;;;4997050;28;20046;-73
2022/04/15 10:13:45;;;;;;;13.52;7.68;;;;;;;;;;4995114;28;21401;-73
2022/04/15 10:16:12;;;;;;;7.25;4.22;;;;;;;;;;5000564;28;20032;-70
2022/04/15 10:18:40;;;;;;;11.70;5.90;;;;;;;;;;5002801;28;20104;-70
2022/04/15 10:21:08;;;;;;;12.18;6.07;;;;;;;;;;5006231;28;20487;-70
2022/04/15 10:23:34;;;;;;;14.13;7.00;;;;;;;;;;5006862;28;20125;-71
2022/04/15 10:26:01;;;;;;;8.52;4.60;;;;;;;;;;5003003;28;20122;-71
2022/04/15 10:28:44;;;;;;;11.07;5.07;;;;;;;;;;4999302;28;20050;-71
2022/04/15 10:31:13;;;;;;;10.98;5.45;;;;;;;;;;5001996;28;20026;-72
2022/04/15 10:33:39;;;;;;;11.98;3.83;;;;;;;;;;4995505;28;20018;-74
2022/04/15 10:36:22;;;;;;;11.23;5.38;;;;;;;;;;5003796;28;20030;-74
2022/04/15 10:39:03;;;;;;;7.45;4.22;;;;;;;;;;4990286;28;20076;-67
2022/04/15 10:41:29;;;;;;;7.97;4.25;;;;;;;;;;4993248;28;20116;-73
2022/04/15 10:43:58;;;;;;;12.90;5.50;;;;;;;;;;5003041;28;20030;-73
2022/04/15 10:46:31;;;;;;;11.00;5.63;;;;;;;;;;5002297;28;20109;-72
2022/04/15 10:49:01;;;;;;;31.15;7.70;;;;;;;;;;5000694;28;20040;-72
2022/04/15 10:51:30;;;;;;;12.32;5.40;;;;;;;;;;4993909;28;20555;-72
2022/04/15 10:54:15;;;;;;;13.85;5.95;;;;;;;;;;4997805;28;20084;-72
2022/04/15 10:57:01;;;;;;;14.18;7.90;;;;;;;;;;4996801;28;20407;-72
2022/04/15 11:02:19;;;;;;;16.10;7.22;;;;;;;;;;4988937;28;20585;-72
2022/04/15 11:04:52;;;;;;;9.57;5.35;;;;;;;;;;4978809;28;20519;-72
2022/04/15 11:07:27;;;;;;;10.80;6.33;;;;;;;;;;4979032;28;20040;-71
2022/04/15 11:09:53;;;;;;;14.32;6.78;;;;;;;;;;4979455;28;20281;-72
2022/04/15 11:12:48;;;;;;;12.85;6.30;;;;;;;;;;4981632;28;20045;-72
2022/04/15 11:15:15;;;;;;;15.77;7.20;;;;;;;;;;4972057;28;20045;-72
2022/04/15 11:17:46;;;;;;;12.60;6.63;;;;;;;;;;4980412;28;20045;-72
2022/04/15 11:20:11;;;;;;;10.90;6.07;;;;;;;;;;4979813;28;20466;-72
2022/04/15 11:22:38;;;;;;;12.23;6.50;;;;;;;;;;4981381;28;20743;-72
2022/04/15 11:25:08;;;;;;;12.50;6.18;;;;;;;;;;4982610;28;20093;-76
2022/04/15 11:27:36;;;;;;;10.20;5.75;;;;;;;;;;4981810;28;20113;-74
2022/04/15 11:30:05;;;;;;;12.18;5.90;;;;;;;;;;4982158;28;20221;-77
2022/04/15 11:32:30;;;;;;;9.77;5.28;;;;;;;;;;4981142;28;20175;-77
2022/04/15 11:34:56;;;;;;;8.18;3.90;;;;;;;;;;4978243;28;20078;-73
2022/04/15 11:37:22;;;;;;;8.52;3.53;;;;;;;;;;4968565;28;20038;-72
2022/04/15 11:39:48;;;;;;;5.78;3.53;;;;;;;;;;4969812;28;20076;-73
2022/04/15 11:42:14;;;;;;;6.97;3.75;;;;;;;;;;4975156;28;20117;-72
2022/04/15 11:44:42;;;;;;;7.75;3.85;;;;;;;;;;4981580;28;20540;-75
2022/04/15 11:47:18;;;;;;;8.73;4.50;;;;;;;;;;4976467;28;20070;-73
2022/04/15 11:49:45;;;;;;;11.32;4.75;;;;;;;;;;4975896;28;20428;-74
2022/04/15 11:52:23;;;;;;;5.78;3.67;;;;;;;;;;4974718;28;20026;-75
2022/04/15 11:54:49;;;;;;;6.28;2.97;;;;;;;;;;4976162;28;20081;-73
2022/04/15 11:57:14;;;;;;;5.63;3.30;;;;;;;;;;4977516;28;20038;-74
2022/04/15 11:59:44;;;;;;;6.63;3.53;;;;;;;;;;4974641;28;20606;-73
2022/04/15 12:02:14;;;;;;;5.68;2.90;;;;;;;;;;4979324;28;20070;-72
2022/04/15 12:04:53;;;;;;;8.23;4.00;;;;;;;;;;4972425;28;20532;-72
2022/04/15 12:07:19;;;;;;;7.13;4.53;;;;;;;;;;4980258;28;20468;-73
2022/04/15 12:09:45;;;;;;;6.00;3.53;;;;;;;;;;4975868;28;20026;-73
2022/04/15 12:12:11;;;;;;;6.55;3.60;;;;;;;;;;4980540;28;20041;-76
2022/04/15 12:14:38;;;;;;;8.77;4.40;;;;;;;;;;4975695;28;20030;-73
2022/04/15 12:17:07;;;;;;;6.53;3.40;;;;;;;;;;4973682;28;20097;-73
2022/04/15 12:19:33;;;;;;;8.80;3.97;;;;;;;;;;4977169;28;20038;-72
2022/04/15 12:22:00;;;;;;;7.65;3.10;;;;;;;;;;4972850;28;20095;-72
2022/04/15 12:24:30;;;;;;;5.75;3.45;;;;;;;;;;4979327;28;20046;-71
2022/04/15 12:26:55;;;;;;;7.18;3.60;;;;;;;;;;4981276;28;20118;-75
2022/04/15 12:32:35;;;;;;;6.45;3.33;;;;;;;;;;4978708;28;20045;-75
2022/04/15 12:35:00;;;;;;;6.00;3.45;;;;;;;;;;4984613;28;20137;-77
2022/04/15 12:37:53;;;;;;;6.05;3.10;;;;;;;;;;4981858;28;20128;-78
2022/04/15 12:40:21;;;;;;;6.07;3.65;;;;;;;;;;4980348;28;20057;-77
2022/04/15 12:42:49;;;;;;;8.13;3.80;;;;;;;;;;4983377;28;20060;-78
2022/04/15 12:45:17;;;;;;;7.00;3.72;;;;;;;;;;4984961;28;20684;-77
2022/04/15 12:47:47;;;;;;;6.05;3.80;;;;;;;;;;4985832;28;20625;-77
2022/04/15 12:50:20;;;;;;;6.75;4.07;;;;;;;;;;4978086;28;20708;-77
2022/04/15 12:52:48;;;;;;;4.70;3.25;;;;;;;;;;4981712;28;20034;-77
2022/04/15 12:55:22;;;;;;;6.93;3.60;;;;;;;;;;4973771;28;20038;-77
2022/04/15 12:57:48;;;;;;;6.75;3.95;;;;;;;;;;4993099;28;20045;-77
2022/04/15 13:00:13;;;;;;;6.00;3.67;;;;;;;;;;4985038;28;20428;-76
2022/04/15 13:02:39;;;;;;;6.25;3.45;;;;;;;;;;4981893;28;20475;-77
2022/04/15 13:05:06;;;;;;;5.43;3.90;;;;;;;;;;4980580;28;20034;-77
2022/04/15 13:07:33;;;;;;;6.93;3.88;;;;;;;;;;4982206;28;20030;-74
2022/04/15 13:09:59;;;;;;;9.98;5.07;;;;;;;;;;4982349;28;20085;-74
2022/04/15 13:12:25;;;;;;;5.00;3.00;;;;;;;;;;4977563;28;20133;-74
2022/04/15 13:14:52;;;;;;;13.77;3.33;;;;;;;;;;4999815;28;20392;-75
2022/04/15 13:17:19;;;;;;;5.63;3.00;;;;;;;;;;5004120;28;20128;-76
2022/04/15 13:19:45;;;;;;;5.32;3.05;;;;;;;;;;5003505;28;20392;-74
2022/04/15 13:22:11;;;;;;;7.00;3.40;;;;;;;;;;5003415;28;20160;-73
2022/04/15 13:24:38;;;;;;;6.95;3.15;;;;;;;;;;5007978;28;20430;-74
2022/04/15 13:27:04;;;;;;;5.47;3.10;;;;;;;;;;5001726;28;20037;-73
2022/04/15 13:29:29;;;;;;;8.10;4.88;;;;;;;;;;5003297;28;20046;-73
2022/04/15 13:31:55;;;;;;;10.95;6.07;;;;;;;;;;4999408;28;20048;-74
2022/04/15 13:34:20;;;;;;;8.68;5.70;;;;;;;;;;5005467;28;20419;-73
2022/04/15 13:36:46;;;;;;;9.32;5.80;;;;;;;;;;5005657;28;20058;-74
2022/04/15 13:39:12;;;;;;;12.20;7.13;;;;;;;;;;5005004;28;20045;-74
2022/04/15 13:41:37;;;;;;;14.07;6.88;;;;;;;;;;5007066;28;20036;-72
2022/04/15 13:44:03;;;;;;;12.00;7.35;;;;;;;;;;5005094;28;20056;-74
2022/04/15 13:46:28;;;;;;;11.88;6.72;;;;;;;;;;5005607;28;20041;-73
2022/04/15 13:48:54;;;;;;;18.73;5.38;;;;;;;;;;5003677;28;20553;-72
2022/04/15 13:51:22;;;;;;;11.05;6.47;;;;;;;;;;4994611;28;20033;-72
2022/04/15 13:56:37;;;;;;;10.50;6.38;;;;;;;;;;4997267;28;20048;-72
2022/04/15 13:59:04;;;;;;;10.00;6.43;;;;;;;;;;5002427;28;20507;-71
2022/04/15 14:01:33;;;;;;;11.88;7.85;;;;;;;;;;5003561;28;20119;-71
2022/04/15 14:04:02;;;;;;;12.07;7.80;;;;;;;;;;5010320;28;20774;-70
2022/04/15 14:06:28;;;;;;;15.48;7.70;;;;;;;;;;5006040;28;20026;-71
2022/04/15 14:08:54;;;;;;;12.80;8.45;;;;;;;;;;4996467;28;20040;-74
2022/04/15 14:11:20;;;;;;;13.27;9.00;;;;;;;;;;5014083;28;20813;-75
2022/04/15 14:13:46;;;;;;;14.30;9.23;;;;;;;;;;5005997;28;20061;-75
2022/04/15 14:16:13;;;;;;;13.95;8.65;;;;;;;;;;5008240;28;20617;-74
2022/04/15 14:18:38;;;;;;;13.00;8.77;;;;;;;;;;4999024;28;20103;-73
2022/04/15 14:21:05;;;;;;;14.07;8.88;;;;;;;;;;5000666;28;20053;-74
2022/04/15 14:23:30;;;;;;;15.35;8.90;;;;;;;;;;5005525;28;20541;-71
2022/04/15 14:25:56;;;;;;;13.27;7.53;;;;;;;;;;4998965;28;20034;-73
2022/04/15 14:28:21;;;;;;;11.40;7.20;;;;;;;;;;5012733;28;20042;-72
2022/04/15 14:30:47;;;;;;;14.88;7.97;;;;;;;;;;5007970;28;20028;-73